sensor_id;sensor_type;location;lat;lon;timestamp;P1;durP1;ratioP1;P2;durP2;ratioP2
1975;SDS011;988;48.016;7.800;2022-07-29T00:00:29;24.03;;;22.40;;
1975;SDS011;988;48.016;7.800;2022-07-29T00:02:55;23.77;;;22.43;;
1975;SDS011;988;48.016;7.800;2022-07-29T00:05:21;24.70;;;23.20;;
1975;SDS011;988;48.016;7.800;2022-07-29T00:07:47;24.50;;;22.40;;
1975;SDS011;988;48.016;7.800;2022-07-29T00:13:16;25.00;;;23.03;;
1975;SDS011;988;48.016;7.800;2022-07-29T00:15:42;24.20;;;22.40;;
1975;SDS011;988;48.016;7.800;2022-07-29T00:18:08;25.33;;;23.63;;
1975;SDS011;988;48.016;7.800;2022-07-29T00:20:34;25.00;;;23.50;;
1975;SDS011;988;48.016;7.800;2022-07-29T00:23:00;25.00;;;23.30;;
1975;SDS011;988;48.016;7.800;2022-07-29T00:25:26;24.33;;;22.73;;
1975;SDS011;988;48.016;7.800;2022-07-29T00:27:52;25.07;;;23.50;;
1975;SDS011;988;48.016;7.800;2022-07-29T00:30:18;24.30;;;22.70;;
1975;SDS011;988;48.016;7.800;2022-07-29T00:32:44;25.40;;;23.80;;
1975;SDS011;988;48.016;7.800;2022-07-29T00:35:10;25.23;;;23.37;;
1975;SDS011;988;48.016;7.800;2022-07-29T00:37:55;24.33;;;22.73;;
1975;SDS011;988;48.016;7.800;2022-07-29T00:40:21;25.17;;;23.67;;
1975;SDS011;988;48.016;7.800;2022-07-29T00:42:48;24.70;;;23.00;;
1975;SDS011;988;48.016;7.800;2022-07-29T00:45:14;24.07;;;22.67;;
1975;SDS011;988;48.016;7.800;2022-07-29T00:47:41;25.53;;;23.77;;
1975;SDS011;988;48.016;7.800;2022-07-29T00:50:07;24.80;;;23.20;;
1975;SDS011;988;48.016;7.800;2022-07-29T00:52:35;25.27;;;23.67;;
1975;SDS011;988;48.016;7.800;2022-07-29T00:55:06;24.90;;;23.30;;
1975;SDS011;988;48.016;7.800;2022-07-29T00:57:33;24.40;;;22.90;;
1975;SDS011;988;48.016;7.800;2022-07-29T00:59:59;24.30;;;22.70;;
1975;SDS011;988;48.016;7.800;2022-07-29T01:02:25;24.40;;;22.90;;
1975;SDS011;988;48.016;7.800;2022-07-29T01:04:51;24.77;;;23.27;;
1975;SDS011;988;48.016;7.800;2022-07-29T01:07:18;26.07;;;24.20;;
1975;SDS011;988;48.016;7.800;2022-07-29T01:09:44;26.00;;;24.30;;
1975;SDS011;988;48.016;7.800;2022-07-29T01:12:11;25.00;;;23.50;;
1975;SDS011;988;48.016;7.800;2022-07-29T01:14:37;26.60;;;24.73;;
1975;SDS011;988;48.016;7.800;2022-07-29T01:17:10;25.90;;;24.20;;
1975;SDS011;988;48.016;7.800;2022-07-29T01:19:58;24.93;;;23.43;;
1975;SDS011;988;48.016;7.800;2022-07-29T01:22:28;24.87;;;22.93;;
1975;SDS011;988;48.016;7.800;2022-07-29T01:30:25;25.13;;;23.60;;
1975;SDS011;988;48.016;7.800;2022-07-29T01:32:56;24.23;;;22.63;;
1975;SDS011;988;48.016;7.800;2022-07-29T01:35:25;24.77;;;23.20;;
1975;SDS011;988;48.016;7.800;2022-07-29T01:37:54;24.87;;;23.10;;
1975;SDS011;988;48.016;7.800;2022-07-29T01:40:26;24.63;;;22.70;;
1975;SDS011;988;48.016;7.800;2022-07-29T01:42:54;24.80;;;23.00;;
1975;SDS011;988;48.016;7.800;2022-07-29T01:45:26;25.20;;;23.60;;
1975;SDS011;988;48.016;7.800;2022-07-29T01:48:02;23.53;;;21.87;;
1975;SDS011;988;48.016;7.800;2022-07-29T01:50:36;22.93;;;21.60;;
1975;SDS011;988;48.016;7.800;2022-07-29T01:53:07;23.23;;;21.70;;
1975;SDS011;988;48.016;7.800;2022-07-29T01:55:36;22.93;;;21.53;;
1975;SDS011;988;48.016;7.800;2022-07-29T01:58:03;23.40;;;21.90;;
1975;SDS011;988;48.016;7.800;2022-07-29T02:00:31;24.30;;;22.43;;
1975;SDS011;988;48.016;7.800;2022-07-29T02:02:58;23.10;;;21.70;;
1975;SDS011;988;48.016;7.800;2022-07-29T02:05:24;23.50;;;22.03;;
1975;SDS011;988;48.016;7.800;2022-07-29T02:07:52;23.23;;;21.50;;
1975;SDS011;988;48.016;7.800;2022-07-29T02:10:21;24.33;;;22.77;;
1975;SDS011;988;48.016;7.800;2022-07-29T02:12:47;23.33;;;21.93;;
1975;SDS011;988;48.016;7.800;2022-07-29T02:15:14;23.73;;;22.03;;
1975;SDS011;988;48.016;7.800;2022-07-29T02:17:45;23.77;;;22.20;;
1975;SDS011;988;48.016;7.800;2022-07-29T02:20:14;23.63;;;22.13;;
1975;SDS011;988;48.016;7.800;2022-07-29T02:22:41;23.80;;;22.00;;
1975;SDS011;988;48.016;7.800;2022-07-29T02:25:09;24.10;;;22.20;;
1975;SDS011;988;48.016;7.800;2022-07-29T02:27:36;23.20;;;21.80;;
1975;SDS011;988;48.016;7.800;2022-07-29T02:32:51;22.73;;;21.43;;
1975;SDS011;988;48.016;7.800;2022-07-29T02:35:17;24.33;;;22.70;;
1975;SDS011;988;48.016;7.800;2022-07-29T02:37:44;23.27;;;21.77;;
1975;SDS011;988;48.016;7.800;2022-07-29T02:40:30;23.83;;;22.43;;
1975;SDS011;988;48.016;7.800;2022-07-29T02:42:57;23.43;;;22.03;;
1975;SDS011;988;48.016;7.800;2022-07-29T02:45:23;23.87;;;22.27;;
1975;SDS011;988;48.016;7.800;2022-07-29T02:47:49;23.43;;;21.77;;
1975;SDS011;988;48.016;7.800;2022-07-29T02:50:17;24.23;;;22.20;;
1975;SDS011;988;48.016;7.800;2022-07-29T02:52:47;23.90;;;22.00;;
1975;SDS011;988;48.016;7.800;2022-07-29T02:58:02;23.57;;;22.00;;
1975;SDS011;988;48.016;7.800;2022-07-29T03:00:30;23.27;;;21.77;;
1975;SDS011;988;48.016;7.800;2022-07-29T03:02:59;24.03;;;22.47;;
1975;SDS011;988;48.016;7.800;2022-07-29T03:05:25;23.77;;;22.13;;
1975;SDS011;988;48.016;7.800;2022-07-29T03:07:55;24.20;;;22.50;;
1975;SDS011;988;48.016;7.800;2022-07-29T03:10:23;24.57;;;23.07;;
1975;SDS011;988;48.016;7.800;2022-07-29T03:12:50;23.60;;;22.17;;
1975;SDS011;988;48.016;7.800;2022-07-29T03:15:17;24.60;;;22.80;;
1975;SDS011;988;48.016;7.800;2022-07-29T03:17:43;23.90;;;22.30;;
1975;SDS011;988;48.016;7.800;2022-07-29T03:20:10;23.73;;;22.03;;
1975;SDS011;988;48.016;7.800;2022-07-29T03:22:40;23.27;;;21.60;;
1975;SDS011;988;48.016;7.800;2022-07-29T03:25:12;23.07;;;21.60;;
1975;SDS011;988;48.016;7.800;2022-07-29T03:27:38;24.20;;;22.60;;
1975;SDS011;988;48.016;7.800;2022-07-29T03:30:04;24.37;;;22.67;;
1975;SDS011;988;48.016;7.800;2022-07-29T03:32:30;24.17;;;22.40;;
1975;SDS011;988;48.016;7.800;2022-07-29T03:34:56;23.37;;;21.77;;
1975;SDS011;988;48.016;7.800;2022-07-29T03:37:22;23.37;;;21.77;;
1975;SDS011;988;48.016;7.800;2022-07-29T03:39:48;24.10;;;22.50;;
1975;SDS011;988;48.016;7.800;2022-07-29T03:42:15;24.53;;;22.90;;
1975;SDS011;988;48.016;7.800;2022-07-29T03:44:43;24.20;;;22.30;;
1975;SDS011;988;48.016;7.800;2022-07-29T03:47:09;23.70;;;22.10;;
1975;SDS011;988;48.016;7.800;2022-07-29T03:49:36;25.33;;;23.40;;
1975;SDS011;988;48.016;7.800;2022-07-29T03:52:03;24.23;;;22.63;;
1975;SDS011;988;48.016;7.800;2022-07-29T03:54:29;24.93;;;22.93;;
1975;SDS011;988;48.016;7.800;2022-07-29T03:56:55;24.83;;;23.03;;
1975;SDS011;988;48.016;7.800;2022-07-29T03:59:24;23.33;;;21.73;;
1975;SDS011;988;48.016;7.800;2022-07-29T04:01:51;23.77;;;22.20;;
1975;SDS011;988;48.016;7.800;2022-07-29T04:04:17;23.80;;;22.30;;
1975;SDS011;988;48.016;7.800;2022-07-29T04:06:44;25.57;;;23.40;;
1975;SDS011;988;48.016;7.800;2022-07-29T04:09:10;25.63;;;23.30;;
1975;SDS011;988;48.016;7.800;2022-07-29T04:11:38;23.50;;;21.90;;
1975;SDS011;988;48.016;7.800;2022-07-29T04:14:04;24.67;;;23.07;;
1975;SDS011;988;48.016;7.800;2022-07-29T04:16:30;24.00;;;22.40;;
1975;SDS011;988;48.016;7.800;2022-07-29T04:18:56;23.97;;;22.27;;
1975;SDS011;988;48.016;7.800;2022-07-29T04:21:22;23.50;;;22.00;;
1975;SDS011;988;48.016;7.800;2022-07-29T04:23:48;24.53;;;22.93;;
1975;SDS011;988;48.016;7.800;2022-07-29T04:26:18;23.30;;;21.90;;
1975;SDS011;988;48.016;7.800;2022-07-29T04:28:44;23.47;;;21.97;;
1975;SDS011;988;48.016;7.800;2022-07-29T04:31:10;24.70;;;22.60;;
1975;SDS011;988;48.016;7.800;2022-07-29T04:33:36;24.27;;;22.57;;
1975;SDS011;988;48.016;7.800;2022-07-29T04:36:03;24.70;;;22.53;;
1975;SDS011;988;48.016;7.800;2022-07-29T04:38:29;24.37;;;22.87;;
1975;SDS011;988;48.016;7.800;2022-07-29T04:40:55;24.57;;;22.77;;
1975;SDS011;988;48.016;7.800;2022-07-29T04:43:20;23.47;;;21.97;;
1975;SDS011;988;48.016;7.800;2022-07-29T04:45:46;23.30;;;21.90;;
1975;SDS011;988;48.016;7.800;2022-07-29T04:48:12;25.20;;;23.60;;
1975;SDS011;988;48.016;7.800;2022-07-29T04:50:39;25.50;;;23.80;;
1975;SDS011;988;48.016;7.800;2022-07-29T04:53:05;24.90;;;23.20;;
1975;SDS011;988;48.016;7.800;2022-07-29T04:55:32;25.30;;;23.80;;
1975;SDS011;988;48.016;7.800;2022-07-29T04:57:58;25.37;;;23.60;;
1975;SDS011;988;48.016;7.800;2022-07-29T05:00:24;24.80;;;22.80;;
1975;SDS011;988;48.016;7.800;2022-07-29T05:02:50;25.83;;;24.07;;
1975;SDS011;988;48.016;7.800;2022-07-29T05:05:16;26.17;;;24.27;;
1975;SDS011;988;48.016;7.800;2022-07-29T05:07:42;24.63;;;23.03;;
1975;SDS011;988;48.016;7.800;2022-07-29T05:10:08;25.30;;;23.50;;
1975;SDS011;988;48.016;7.800;2022-07-29T05:12:34;25.47;;;23.97;;
1975;SDS011;988;48.016;7.800;2022-07-29T05:15:00;25.67;;;24.00;;
1975;SDS011;988;48.016;7.800;2022-07-29T05:17:26;25.80;;;23.50;;
1975;SDS011;988;48.016;7.800;2022-07-29T05:19:52;25.67;;;23.80;;
1975;SDS011;988;48.016;7.800;2022-07-29T05:22:18;24.90;;;23.27;;
1975;SDS011;988;48.016;7.800;2022-07-29T05:24:44;24.70;;;23.10;;
1975;SDS011;988;48.016;7.800;2022-07-29T05:27:10;25.97;;;24.13;;
1975;SDS011;988;48.016;7.800;2022-07-29T05:29:36;26.40;;;24.43;;
1975;SDS011;988;48.016;7.800;2022-07-29T05:32:03;25.80;;;24.03;;
1975;SDS011;988;48.016;7.800;2022-07-29T05:34:32;25.20;;;23.70;;
1975;SDS011;988;48.016;7.800;2022-07-29T05:36:58;23.97;;;22.37;;
1975;SDS011;988;48.016;7.800;2022-07-29T05:39:24;25.43;;;23.77;;
1975;SDS011;988;48.016;7.800;2022-07-29T05:41:50;25.73;;;23.90;;
1975;SDS011;988;48.016;7.800;2022-07-29T05:44:17;25.37;;;23.63;;
1975;SDS011;988;48.016;7.800;2022-07-29T05:46:43;25.00;;;23.40;;
1975;SDS011;988;48.016;7.800;2022-07-29T05:49:09;24.57;;;23.07;;
1975;SDS011;988;48.016;7.800;2022-07-29T05:51:35;26.10;;;23.80;;
1975;SDS011;988;48.016;7.800;2022-07-29T05:54:01;25.73;;;23.97;;
1975;SDS011;988;48.016;7.800;2022-07-29T05:56:27;25.57;;;23.47;;
1975;SDS011;988;48.016;7.800;2022-07-29T05:58:53;25.07;;;23.47;;
1975;SDS011;988;48.016;7.800;2022-07-29T06:01:19;25.80;;;24.20;;
1975;SDS011;988;48.016;7.800;2022-07-29T06:03:45;25.27;;;23.57;;
1975;SDS011;988;48.016;7.800;2022-07-29T06:06:11;26.10;;;24.17;;
1975;SDS011;988;48.016;7.800;2022-07-29T06:08:37;27.00;;;24.73;;
1975;SDS011;988;48.016;7.800;2022-07-29T06:11:05;26.00;;;24.20;;
1975;SDS011;988;48.016;7.800;2022-07-29T06:13:32;26.43;;;24.33;;
1975;SDS011;988;48.016;7.800;2022-07-29T06:15:58;26.50;;;24.60;;
1975;SDS011;988;48.016;7.800;2022-07-29T06:18:23;26.20;;;24.30;;
1975;SDS011;988;48.016;7.800;2022-07-29T06:20:50;25.80;;;24.00;;
1975;SDS011;988;48.016;7.800;2022-07-29T06:23:16;24.90;;;23.30;;
1975;SDS011;988;48.016;7.800;2022-07-29T06:25:42;24.60;;;23.20;;
1975;SDS011;988;48.016;7.800;2022-07-29T06:28:08;25.93;;;23.87;;
1975;SDS011;988;48.016;7.800;2022-07-29T06:30:34;26.30;;;24.53;;
1975;SDS011;988;48.016;7.800;2022-07-29T06:33:00;25.70;;;24.10;;
1975;SDS011;988;48.016;7.800;2022-07-29T06:35:27;27.30;;;24.80;;
1975;SDS011;988;48.016;7.800;2022-07-29T06:37:53;26.67;;;24.60;;
1975;SDS011;988;48.016;7.800;2022-07-29T06:40:19;26.47;;;24.70;;
1975;SDS011;988;48.016;7.800;2022-07-29T06:43:04;24.90;;;22.80;;
1975;SDS011;988;48.016;7.800;2022-07-29T06:45:30;25.53;;;23.93;;
1975;SDS011;988;48.016;7.800;2022-07-29T06:47:56;26.20;;;24.40;;
1975;SDS011;988;48.016;7.800;2022-07-29T06:50:22;23.37;;;22.07;;
1975;SDS011;988;48.016;7.800;2022-07-29T06:52:48;25.30;;;23.60;;
1975;SDS011;988;48.016;7.800;2022-07-29T06:55:14;26.17;;;24.30;;
1975;SDS011;988;48.016;7.800;2022-07-29T06:57:40;24.00;;;22.37;;
1975;SDS011;988;48.016;7.800;2022-07-29T07:00:06;23.40;;;21.80;;
1975;SDS011;988;48.016;7.800;2022-07-29T07:02:32;24.87;;;22.67;;
1975;SDS011;988;48.016;7.800;2022-07-29T07:04:58;22.80;;;21.20;;
1975;SDS011;988;48.016;7.800;2022-07-29T07:07:24;23.20;;;21.70;;
1975;SDS011;988;48.016;7.800;2022-07-29T07:09:50;22.57;;;21.20;;
1975;SDS011;988;48.016;7.800;2022-07-29T07:12:16;24.03;;;22.43;;
1975;SDS011;988;48.016;7.800;2022-07-29T07:14:42;23.23;;;21.50;;
1975;SDS011;988;48.016;7.800;2022-07-29T07:17:08;23.87;;;22.07;;
1975;SDS011;988;48.016;7.800;2022-07-29T07:19:34;23.03;;;21.53;;
1975;SDS011;988;48.016;7.800;2022-07-29T07:22:00;23.63;;;21.70;;
1975;SDS011;988;48.016;7.800;2022-07-29T07:24:26;23.03;;;21.63;;
1975;SDS011;988;48.016;7.800;2022-07-29T07:26:52;23.17;;;21.67;;
1975;SDS011;988;48.016;7.800;2022-07-29T07:29:18;23.00;;;21.60;;
1975;SDS011;988;48.016;7.800;2022-07-29T07:31:44;23.73;;;22.27;;
1975;SDS011;988;48.016;7.800;2022-07-29T07:34:10;22.70;;;21.40;;
1975;SDS011;988;48.016;7.800;2022-07-29T07:36:36;23.70;;;21.83;;
1975;SDS011;988;48.016;7.800;2022-07-29T07:39:02;22.40;;;21.00;;
1975;SDS011;988;48.016;7.800;2022-07-29T07:41:30;23.50;;;21.73;;
1975;SDS011;988;48.016;7.800;2022-07-29T07:43:55;23.27;;;21.47;;
1975;SDS011;988;48.016;7.800;2022-07-29T07:46:21;23.20;;;21.50;;
1975;SDS011;988;48.016;7.800;2022-07-29T07:48:47;22.90;;;21.40;;
1975;SDS011;988;48.016;7.800;2022-07-29T07:51:13;24.80;;;22.97;;
1975;SDS011;988;48.016;7.800;2022-07-29T07:53:39;23.03;;;21.70;;
1975;SDS011;988;48.016;7.800;2022-07-29T07:56:05;23.33;;;21.67;;
1975;SDS011;988;48.016;7.800;2022-07-29T07:58:31;23.47;;;22.07;;
1975;SDS011;988;48.016;7.800;2022-07-29T08:00:57;23.87;;;21.93;;
1975;SDS011;988;48.016;7.800;2022-07-29T08:03:23;22.60;;;21.20;;
1975;SDS011;988;48.016;7.800;2022-07-29T08:05:49;22.90;;;21.40;;
1975;SDS011;988;48.016;7.800;2022-07-29T08:08:16;22.73;;;21.30;;
1975;SDS011;988;48.016;7.800;2022-07-29T08:10:42;24.57;;;22.27;;
1975;SDS011;988;48.016;7.800;2022-07-29T08:13:17;22.80;;;21.50;;
1975;SDS011;988;48.016;7.800;2022-07-29T08:15:44;24.30;;;22.73;;
1975;SDS011;988;48.016;7.800;2022-07-29T08:18:11;23.40;;;21.70;;
1975;SDS011;988;48.016;7.800;2022-07-29T08:20:37;23.60;;;22.10;;
1975;SDS011;988;48.016;7.800;2022-07-29T08:23:04;24.97;;;22.73;;
1975;SDS011;988;48.016;7.800;2022-07-29T08:25:31;23.13;;;21.63;;
1975;SDS011;988;48.016;7.800;2022-07-29T08:27:57;23.77;;;22.37;;
1975;SDS011;988;48.016;7.800;2022-07-29T08:30:23;23.37;;;22.00;;
1975;SDS011;988;48.016;7.800;2022-07-29T08:32:49;23.50;;;21.63;;
1975;SDS011;988;48.016;7.800;2022-07-29T08:35:18;23.90;;;22.13;;
1975;SDS011;988;48.016;7.800;2022-07-29T08:37:44;24.40;;;22.73;;
1975;SDS011;988;48.016;7.800;2022-07-29T08:40:10;24.53;;;22.77;;
1975;SDS011;988;48.016;7.800;2022-07-29T08:42:36;24.10;;;22.70;;
1975;SDS011;988;48.016;7.800;2022-07-29T08:45:02;23.30;;;21.80;;
1975;SDS011;988;48.016;7.800;2022-07-29T08:47:28;23.90;;;22.50;;
1975;SDS011;988;48.016;7.800;2022-07-29T08:49:55;24.63;;;23.13;;
1975;SDS011;988;48.016;7.800;2022-07-29T08:52:21;24.10;;;22.50;;
1975;SDS011;988;48.016;7.800;2022-07-29T08:54:47;24.63;;;23.13;;
1975;SDS011;988;48.016;7.800;2022-07-29T08:57:13;23.23;;;21.80;;
1975;SDS011;988;48.016;7.800;2022-07-29T08:59:40;23.77;;;22.33;;
1975;SDS011;988;48.016;7.800;2022-07-29T09:02:09;24.47;;;22.53;;
1975;SDS011;988;48.016;7.800;2022-07-29T09:04:38;22.70;;;21.30;;
1975;SDS011;988;48.016;7.800;2022-07-29T09:07:04;23.53;;;22.03;;
1975;SDS011;988;48.016;7.800;2022-07-29T09:09:32;24.47;;;22.87;;
1975;SDS011;988;48.016;7.800;2022-07-29T09:11:58;24.43;;;22.20;;
1975;SDS011;988;48.016;7.800;2022-07-29T09:14:24;23.60;;;21.80;;
1975;SDS011;988;48.016;7.800;2022-07-29T09:16:54;23.17;;;21.43;;
1975;SDS011;988;48.016;7.800;2022-07-29T09:19:28;23.37;;;21.57;;
1975;SDS011;988;48.016;7.800;2022-07-29T09:21:55;23.67;;;22.03;;
1975;SDS011;988;48.016;7.800;2022-07-29T09:24:25;22.33;;;20.93;;
1975;SDS011;988;48.016;7.800;2022-07-29T09:26:51;23.40;;;21.70;;
1975;SDS011;988;48.016;7.800;2022-07-29T09:29:19;24.53;;;22.80;;
1975;SDS011;988;48.016;7.800;2022-07-29T09:31:46;25.00;;;22.70;;
1975;SDS011;988;48.016;7.800;2022-07-29T09:34:13;22.77;;;21.37;;
1975;SDS011;988;48.016;7.800;2022-07-29T09:36:44;24.73;;;22.50;;
1975;SDS011;988;48.016;7.800;2022-07-29T09:39:10;23.13;;;21.63;;
1975;SDS011;988;48.016;7.800;2022-07-29T09:41:50;23.80;;;21.93;;
1975;SDS011;988;48.016;7.800;2022-07-29T09:44:20;22.60;;;21.20;;
1975;SDS011;988;48.016;7.800;2022-07-29T09:46:53;23.00;;;21.20;;
1975;SDS011;988;48.016;7.800;2022-07-29T09:49:19;25.10;;;23.20;;
1975;SDS011;988;48.016;7.800;2022-07-29T09:51:45;22.77;;;21.37;;
1975;SDS011;988;48.016;7.800;2022-07-29T09:54:21;24.33;;;22.93;;
1975;SDS011;988;48.016;7.800;2022-07-29T09:56:47;23.63;;;22.13;;
1975;SDS011;988;48.016;7.800;2022-07-29T09:59:14;25.30;;;23.30;;
1975;SDS011;988;48.016;7.800;2022-07-29T10:01:40;24.10;;;22.37;;
1975;SDS011;988;48.016;7.800;2022-07-29T10:04:06;23.07;;;21.67;;
1975;SDS011;988;48.016;7.800;2022-07-29T10:06:32;25.57;;;23.67;;
1975;SDS011;988;48.016;7.800;2022-07-29T10:09:08;24.60;;;23.00;;
1975;SDS011;988;48.016;7.800;2022-07-29T10:11:34;23.90;;;22.33;;
1975;SDS011;988;48.016;7.800;2022-07-29T10:14:01;24.77;;;23.20;;
1975;SDS011;988;48.016;7.800;2022-07-29T10:16:27;24.97;;;22.90;;
1975;SDS011;988;48.016;7.800;2022-07-29T10:18:57;24.20;;;22.80;;
1975;SDS011;988;48.016;7.800;2022-07-29T10:21:24;24.60;;;22.57;;
1975;SDS011;988;48.016;7.800;2022-07-29T10:23:51;25.53;;;23.50;;
1975;SDS011;988;48.016;7.800;2022-07-29T10:26:19;25.27;;;22.77;;
1975;SDS011;988;48.016;7.800;2022-07-29T10:28:45;24.57;;;23.03;;
1975;SDS011;988;48.016;7.800;2022-07-29T10:31:13;25.80;;;24.17;;
1975;SDS011;988;48.016;7.800;2022-07-29T10:41:43;25.07;;;23.37;;
1975;SDS011;988;48.016;7.800;2022-07-29T10:44:20;24.27;;;22.67;;
1975;SDS011;988;48.016;7.800;2022-07-29T10:46:47;24.57;;;23.07;;
1975;SDS011;988;48.016;7.800;2022-07-29T10:49:17;25.73;;;24.10;;
1975;SDS011;988;48.016;7.800;2022-07-29T10:54:16;24.87;;;23.40;;
1975;SDS011;988;48.016;7.800;2022-07-29T10:56:42;23.70;;;22.20;;
1975;SDS011;988;48.016;7.800;2022-07-29T11:01:50;25.17;;;23.30;;
1975;SDS011;988;48.016;7.800;2022-07-29T11:04:16;25.50;;;23.77;;
1975;SDS011;988;48.016;7.800;2022-07-29T11:09:28;25.53;;;23.87;;
1975;SDS011;988;48.016;7.800;2022-07-29T11:11:55;25.83;;;24.03;;
1975;SDS011;988;48.016;7.800;2022-07-29T11:17:06;26.73;;;24.77;;
1975;SDS011;988;48.016;7.800;2022-07-29T11:19:33;23.60;;;22.30;;
1975;SDS011;988;48.016;7.800;2022-07-29T11:21:59;24.30;;;22.80;;
1975;SDS011;988;48.016;7.800;2022-07-29T11:24:28;24.53;;;23.07;;
1975;SDS011;988;48.016;7.800;2022-07-29T11:29:34;26.90;;;25.30;;
1975;SDS011;988;48.016;7.800;2022-07-29T11:32:08;26.10;;;24.50;;
1975;SDS011;988;48.016;7.800;2022-07-29T11:34:34;23.73;;;22.23;;
1975;SDS011;988;48.016;7.800;2022-07-29T11:39:34;24.53;;;22.90;;
1975;SDS011;988;48.016;7.800;2022-07-29T11:47:29;24.53;;;22.93;;
1975;SDS011;988;48.016;7.800;2022-07-29T11:49:56;24.30;;;22.60;;
1975;SDS011;988;48.016;7.800;2022-07-29T11:52:22;23.47;;;21.97;;
1975;SDS011;988;48.016;7.800;2022-07-29T11:54:49;23.57;;;21.97;;
1975;SDS011;988;48.016;7.800;2022-07-29T11:57:18;24.87;;;23.37;;
1975;SDS011;988;48.016;7.800;2022-07-29T11:59:45;24.47;;;22.77;;
1975;SDS011;988;48.016;7.800;2022-07-29T12:02:12;24.30;;;22.70;;
1975;SDS011;988;48.016;7.800;2022-07-29T12:07:28;24.97;;;23.57;;
1975;SDS011;988;48.016;7.800;2022-07-29T12:09:54;24.20;;;22.70;;
1975;SDS011;988;48.016;7.800;2022-07-29T12:12:20;25.20;;;23.27;;
1975;SDS011;988;48.016;7.800;2022-07-29T12:14:47;26.00;;;24.07;;
1975;SDS011;988;48.016;7.800;2022-07-29T12:19:52;23.53;;;22.00;;
1975;SDS011;988;48.016;7.800;2022-07-29T12:22:51;24.20;;;22.40;;
1975;SDS011;988;48.016;7.800;2022-07-29T12:25:13;23.00;;;21.60;;
1975;SDS011;988;48.016;7.800;2022-07-29T12:27:42;25.33;;;23.00;;
1975;SDS011;988;48.016;7.800;2022-07-29T12:30:12;23.23;;;21.80;;
1975;SDS011;988;48.016;7.800;2022-07-29T12:32:39;23.40;;;21.80;;
1975;SDS011;988;48.016;7.800;2022-07-29T12:35:06;23.67;;;22.07;;
1975;SDS011;988;48.016;7.800;2022-07-29T12:37:33;22.90;;;21.50;;
1975;SDS011;988;48.016;7.800;2022-07-29T12:40:00;23.43;;;21.83;;
1975;SDS011;988;48.016;7.800;2022-07-29T12:42:26;23.53;;;22.13;;
1975;SDS011;988;48.016;7.800;2022-07-29T12:44:52;23.23;;;21.73;;
1975;SDS011;988;48.016;7.800;2022-07-29T12:47:18;23.87;;;21.90;;
1975;SDS011;988;48.016;7.800;2022-07-29T12:49:44;22.70;;;21.20;;
1975;SDS011;988;48.016;7.800;2022-07-29T12:55:09;21.90;;;20.60;;
1975;SDS011;988;48.016;7.800;2022-07-29T12:57:44;23.43;;;21.97;;
1975;SDS011;988;48.016;7.800;2022-07-29T13:00:12;23.10;;;21.40;;
1975;SDS011;988;48.016;7.800;2022-07-29T13:02:39;24.10;;;22.03;;
1975;SDS011;988;48.016;7.800;2022-07-29T13:05:05;23.57;;;22.07;;
1975;SDS011;988;48.016;7.800;2022-07-29T13:07:36;23.07;;;21.67;;
1975;SDS011;988;48.016;7.800;2022-07-29T13:10:15;23.53;;;21.80;;
1975;SDS011;988;48.016;7.800;2022-07-29T13:15:26;23.20;;;21.30;;
1975;SDS011;988;48.016;7.800;2022-07-29T13:17:52;24.03;;;22.27;;
1975;SDS011;988;48.016;7.800;2022-07-29T13:20:18;23.57;;;21.97;;
1975;SDS011;988;48.016;7.800;2022-07-29T13:22:47;22.87;;;21.47;;
1975;SDS011;988;48.016;7.800;2022-07-29T13:25:13;23.50;;;21.70;;
1975;SDS011;988;48.016;7.800;2022-07-29T13:27:39;22.57;;;21.17;;
1975;SDS011;988;48.016;7.800;2022-07-29T13:30:06;23.70;;;21.93;;
1975;SDS011;988;48.016;7.800;2022-07-29T13:32:33;22.03;;;20.83;;
1975;SDS011;988;48.016;7.800;2022-07-29T13:35:04;22.53;;;21.13;;
1975;SDS011;988;48.016;7.800;2022-07-29T13:37:30;23.60;;;21.80;;
1975;SDS011;988;48.016;7.800;2022-07-29T13:39:58;22.77;;;21.37;;
1975;SDS011;988;48.016;7.800;2022-07-29T13:42:25;22.17;;;20.80;;
1975;SDS011;988;48.016;7.800;2022-07-29T13:44:51;22.30;;;20.70;;
1975;SDS011;988;48.016;7.800;2022-07-29T13:47:18;23.30;;;21.40;;
1975;SDS011;988;48.016;7.800;2022-07-29T13:49:44;24.50;;;22.60;;
1975;SDS011;988;48.016;7.800;2022-07-29T13:52:10;22.60;;;21.20;;
1975;SDS011;988;48.016;7.800;2022-07-29T13:54:36;23.10;;;21.33;;
1975;SDS011;988;48.016;7.800;2022-07-29T13:57:03;23.43;;;21.13;;
1975;SDS011;988;48.016;7.800;2022-07-29T13:59:29;23.40;;;21.60;;
1975;SDS011;988;48.016;7.800;2022-07-29T14:01:55;23.87;;;22.20;;
1975;SDS011;988;48.016;7.800;2022-07-29T14:04:21;24.33;;;22.60;;
1975;SDS011;988;48.016;7.800;2022-07-29T14:06:50;23.10;;;21.50;;
1975;SDS011;988;48.016;7.800;2022-07-29T14:09:16;23.40;;;21.70;;
1975;SDS011;988;48.016;7.800;2022-07-29T14:11:42;23.47;;;21.87;;
1975;SDS011;988;48.016;7.800;2022-07-29T14:14:18;23.03;;;20.90;;
1975;SDS011;988;48.016;7.800;2022-07-29T14:16:45;23.90;;;21.67;;
1975;SDS011;988;48.016;7.800;2022-07-29T14:19:11;23.10;;;21.30;;
1975;SDS011;988;48.016;7.800;2022-07-29T14:21:37;23.30;;;21.40;;
1975;SDS011;988;48.016;7.800;2022-07-29T14:27:07;23.00;;;21.60;;
1975;SDS011;988;48.016;7.800;2022-07-29T14:29:33;23.33;;;21.73;;
1975;SDS011;988;48.016;7.800;2022-07-29T14:31:59;23.70;;;22.10;;
1975;SDS011;988;48.016;7.800;2022-07-29T14:34:25;23.33;;;21.80;;
1975;SDS011;988;48.016;7.800;2022-07-29T14:36:51;22.70;;;21.30;;
1975;SDS011;988;48.016;7.800;2022-07-29T14:39:20;23.10;;;21.60;;
1975;SDS011;988;48.016;7.800;2022-07-29T14:41:46;22.70;;;21.00;;
1975;SDS011;988;48.016;7.800;2022-07-29T14:44:12;22.27;;;20.83;;
1975;SDS011;988;48.016;7.800;2022-07-29T14:46:38;21.67;;;20.37;;
1975;SDS011;988;48.016;7.800;2022-07-29T14:49:04;22.00;;;20.57;;
1975;SDS011;988;48.016;7.800;2022-07-29T14:51:30;21.37;;;19.97;;
1975;SDS011;988;48.016;7.800;2022-07-29T14:53:56;22.00;;;20.60;;
1975;SDS011;988;48.016;7.800;2022-07-29T14:56:22;21.93;;;20.43;;
1975;SDS011;988;48.016;7.800;2022-07-29T14:58:48;22.40;;;20.70;;
1975;SDS011;988;48.016;7.800;2022-07-29T15:01:14;22.47;;;20.87;;
1975;SDS011;988;48.016;7.800;2022-07-29T15:03:40;21.50;;;20.17;;
1975;SDS011;988;48.016;7.800;2022-07-29T15:06:06;22.50;;;21.00;;
1975;SDS011;988;48.016;7.800;2022-07-29T15:08:32;23.77;;;21.27;;
1975;SDS011;988;48.016;7.800;2022-07-29T15:10:58;22.60;;;20.77;;
1975;SDS011;988;48.016;7.800;2022-07-29T15:13:25;22.53;;;21.13;;
1975;SDS011;988;48.016;7.800;2022-07-29T15:15:51;23.47;;;21.97;;
1975;SDS011;988;48.016;7.800;2022-07-29T15:18:17;22.43;;;20.93;;
1975;SDS011;988;48.016;7.800;2022-07-29T15:20:43;22.20;;;20.90;;
1975;SDS011;988;48.016;7.800;2022-07-29T15:23:11;22.60;;;21.30;;
1975;SDS011;988;48.016;7.800;2022-07-29T15:25:37;22.77;;;21.47;;
1975;SDS011;988;48.016;7.800;2022-07-29T15:28:03;22.83;;;21.43;;
1975;SDS011;988;48.016;7.800;2022-07-29T15:30:32;23.53;;;21.83;;
1975;SDS011;988;48.016;7.800;2022-07-29T15:32:58;22.13;;;20.83;;
1975;SDS011;988;48.016;7.800;2022-07-29T15:35:24;22.57;;;21.10;;
1975;SDS011;988;48.016;7.800;2022-07-29T15:37:50;22.27;;;20.70;;
1975;SDS011;988;48.016;7.800;2022-07-29T15:40:16;23.03;;;21.60;;
1975;SDS011;988;48.016;7.800;2022-07-29T15:42:42;22.20;;;21.00;;
1975;SDS011;988;48.016;7.800;2022-07-29T15:45:08;22.87;;;21.17;;
1975;SDS011;988;48.016;7.800;2022-07-29T15:47:34;24.00;;;21.93;;
1975;SDS011;988;48.016;7.800;2022-07-29T15:50:00;23.70;;;22.17;;
1975;SDS011;988;48.016;7.800;2022-07-29T15:52:27;23.50;;;22.10;;
1975;SDS011;988;48.016;7.800;2022-07-29T15:54:54;23.60;;;22.17;;
1975;SDS011;988;48.016;7.800;2022-07-29T15:57:20;24.60;;;22.27;;